Portada
METAR-TAF:

METAR-TAF

Aeroports :

Newcastle upon Tyne, Anglaterra

latitud: 55-02N, longitud: 001-42W, altitud: 81 m

Observació

L'informe es va fer fa 58 minuts, a les 10:50 UTC
Vent 7 kt del Est
Temperatura 8°C
Humitat 87%
Pressió 1029 hPa
Visibilitat: 8000 m
Cel ennuvolat a una alçada de 2500 ft

METAR: EGNT 091050Z 08007KT 8000 BKN025 08/06 Q1029

Hora: 12:48 (11:48 UTC)

Pronòstic

L'informe es va fer fa 2 hores i 16 minuts, a les 09:32 UTC
Pronòstic vàlid del 09 a les 09 UTC al 09 a les 13 UTC
Vent 8 kt del Est/Nord-Est
Visibilitat: 8000 m
Cel ennuvolat a una alçada de 900 ft
Evolucionant progressivament
l' 09 a les 10 UTC al 09 a les 13 UTC
Vent 10 kt del Est/Sud-Est
Visibilitat 10 km o més
Cel ennuvolat a una alçada de 1500 ft

TAF: EGNT 090932Z 0909/0913 06008KT 8000 BKN009 BECMG 0910/0913 12010KT 9999 BKN015

Observacions i pronòstics meteorològics de més de 4000 aeroports (METAR i TAF).

Les estacions disponibles són els punts grocs i vermells al mapa.

Posi el ratolí al punt desitjat per veure el nom de l'estació.

Feu clic per veure les observacions i els pronòstics meteorològics.

Per canviar el mapa: feu clic els botons verds amb una creu de color negre per apropar; al botó verd amb un guió per allunyar la imatge; o en les fletxes verdes per a mapes adjacents.


METAR-TAF: